createdAt,value
2022-10-20T00:00:23.328Z,9.52
2022-10-20T00:05:24.667Z,6.40
2022-10-20T00:10:26.043Z,6.00
2022-10-20T00:15:27.402Z,8.13
2022-10-20T00:20:28.760Z,7.65
2022-10-20T00:25:30.102Z,7.75
2022-10-20T00:30:31.608Z,8.93
2022-10-20T00:35:33.781Z,11.73
2022-10-20T00:40:35.150Z,12.30
2022-10-20T00:45:36.676Z,6.05
2022-10-20T00:50:42.431Z,6.93
2022-10-20T00:55:47.939Z,8.55
2022-10-20T01:00:55.688Z,8.73
2022-10-20T01:05:57.325Z,11.85
2022-10-20T01:11:29.092Z,7.03
2022-10-20T01:17:13.958Z,7.07
2022-10-20T01:22:41.742Z,6.15
2022-10-20T01:27:46.619Z,7.85
2022-10-20T01:33:05.247Z,6.57
2022-10-20T01:38:35.035Z,7.53
2022-10-20T01:43:39.129Z,10.60
2022-10-20T01:48:40.712Z,9.38
2022-10-20T01:53:42.083Z,6.15
2022-10-20T01:58:43.381Z,6.30
2022-10-20T02:03:54.333Z,14.60
2022-10-20T02:09:01.313Z,5.60
2022-10-20T02:14:05.059Z,9.63
2022-10-20T02:19:09.054Z,8.57
2022-10-20T02:24:13.660Z,9.63
2022-10-20T02:29:20.219Z,6.10
2022-10-20T02:34:25.718Z,8.17
2022-10-20T02:39:27.325Z,9.65
2022-10-20T02:44:28.730Z,7.82
2022-10-20T02:49:30.175Z,10.63
2022-10-20T02:54:31.517Z,10.38
2022-10-20T02:59:33.386Z,9.10
2022-10-20T03:04:34.745Z,10.45
2022-10-20T03:09:36.184Z,6.50
2022-10-20T03:14:37.583Z,10.07
2022-10-20T03:19:40.805Z,13.25
2022-10-20T03:24:42.253Z,7.38
2022-10-20T03:29:43.630Z,8.30
2022-10-20T03:34:45.004Z,11.35
2022-10-20T03:39:46.447Z,8.75
2022-10-20T03:44:47.875Z,9.55
2022-10-20T03:49:49.309Z,8.50
2022-10-20T03:54:50.751Z,8.00
2022-10-20T03:59:52.193Z,6.25
2022-10-20T04:04:53.581Z,10.10
2022-10-20T04:09:56.017Z,6.38
2022-10-20T04:14:57.387Z,15.77
2022-10-20T04:19:58.746Z,10.00
2022-10-20T04:25:01.015Z,8.48
2022-10-20T04:30:02.387Z,11.07
2022-10-20T04:35:04.082Z,11.73
2022-10-20T04:40:06.022Z,8.55
2022-10-20T04:45:07.838Z,9.43
2022-10-20T04:50:09.706Z,8.82
2022-10-20T04:55:11.101Z,10.75
2022-10-20T05:00:13.069Z,8.85
2022-10-20T05:05:14.487Z,11.05
2022-10-20T05:10:15.962Z,10.13
2022-10-20T05:15:17.324Z,8.20
2022-10-20T05:20:18.743Z,10.48
2022-10-20T05:25:36.885Z,10.50
2022-10-20T05:30:38.579Z,9.93
2022-10-20T05:35:39.976Z,10.38
2022-10-20T05:40:41.398Z,11.80
2022-10-20T05:45:42.808Z,10.60
2022-10-20T05:55:50.439Z,10.95
2022-10-20T06:00:54.001Z,9.70
2022-10-20T06:05:59.746Z,9.00
2022-10-20T06:11:06.478Z,9.32
2022-10-20T06:16:14.499Z,8.60
2022-10-20T06:21:21.706Z,17.23
2022-10-20T06:26:25.090Z,10.52
2022-10-20T06:31:40.768Z,12.88
2022-10-20T06:36:44.417Z,12.98
2022-10-20T06:41:50.655Z,14.27
2022-10-20T06:46:56.027Z,9.77
2022-10-20T06:51:57.556Z,9.85
2022-10-20T06:56:59.164Z,10.77
2022-10-20T07:02:01.969Z,12.02
2022-10-20T07:07:03.448Z,13.73
2022-10-20T07:12:05.083Z,13.02
2022-10-20T07:17:06.452Z,9.60
2022-10-20T07:22:07.806Z,10.82
2022-10-20T07:27:09.188Z,12.90
2022-10-20T07:32:10.599Z,11.82
2022-10-20T07:37:11.945Z,10.50
2022-10-20T07:42:13.387Z,11.50
2022-10-20T07:47:14.832Z,13.10
2022-10-20T07:52:16.609Z,11.80
2022-10-20T07:57:18.178Z,15.57
2022-10-20T08:02:20.689Z,9.18
2022-10-20T08:07:22.101Z,11.25
2022-10-20T08:12:23.547Z,14.93
2022-10-20T08:17:26.518Z,10.98
2022-10-20T08:22:27.911Z,9.60
2022-10-20T08:27:30.505Z,10.63
2022-10-20T08:32:31.994Z,13.65
2022-10-20T08:37:34.592Z,14.52
2022-10-20T08:42:40.157Z,17.65
2022-10-20T08:47:43.276Z,16.45
2022-10-20T08:52:46.348Z,16.90
2022-10-20T08:57:49.361Z,17.70
2022-10-20T09:02:51.983Z,14.82
2022-10-20T09:07:54.624Z,15.05
2022-10-20T09:12:56.590Z,20.95
2022-10-20T09:18:04.291Z,19.67
2022-10-20T09:23:16.652Z,23.45
2022-10-20T09:28:34.826Z,14.52
2022-10-20T09:33:47.052Z,15.63
2022-10-20T09:38:51.470Z,16.92
2022-10-20T09:44:07.953Z,21.50
2022-10-20T09:49:23.543Z,12.88
2022-10-20T09:54:26.054Z,15.52
2022-10-20T09:59:27.455Z,16.20
2022-10-20T10:04:35.650Z,14.50
2022-10-20T10:09:37.952Z,19.35
2022-10-20T10:14:52.274Z,20.13
2022-10-20T10:19:55.625Z,15.93
2022-10-20T10:25:00.529Z,17.92
2022-10-20T10:30:34.118Z,16.85
2022-10-20T10:35:42.895Z,17.65
2022-10-20T10:41:26.696Z,16.77
2022-10-20T10:46:36.991Z,15.77
2022-10-20T10:51:50.718Z,20.02
2022-10-20T10:57:12.550Z,18.70
2022-10-20T11:02:44.975Z,16.00
2022-10-20T11:07:58.615Z,17.77
2022-10-20T11:13:29.545Z,16.52
2022-10-20T11:18:30.841Z,16.83
2022-10-20T11:23:44.049Z,21.48
2022-10-20T11:28:47.982Z,20.23
2022-10-20T11:33:56.513Z,17.10
2022-10-20T11:38:57.930Z,22.88
2022-10-20T11:44:03.422Z,15.60
2022-10-20T11:49:05.365Z,18.15
2022-10-20T11:54:25.863Z,20.52
2022-10-20T12:00:01.388Z,15.88
2022-10-20T12:05:27.671Z,17.20
2022-10-20T12:10:42.114Z,19.95
2022-10-20T12:15:49.155Z,15.05
2022-10-20T12:21:04.205Z,17.40
2022-10-20T12:26:42.523Z,20.45
2022-10-20T12:32:26.636Z,22.05
2022-10-20T12:37:34.110Z,25.15
2022-10-20T12:42:46.506Z,20.35
2022-10-20T12:47:50.923Z,21.60
2022-10-20T12:52:52.800Z,24.02
2022-10-20T12:58:34.501Z,25.25
2022-10-20T13:03:47.909Z,18.63
2022-10-20T13:09:04.709Z,20.13
2022-10-20T13:14:12.168Z,24.98
2022-10-20T13:19:21.635Z,20.13
2022-10-20T13:24:32.499Z,20.95
2022-10-20T13:29:37.749Z,19.10
2022-10-20T13:34:42.694Z,17.55
2022-10-20T13:39:57.290Z,17.45
2022-10-20T13:45:31.173Z,19.80
2022-10-20T13:50:36.481Z,21.80
2022-10-20T13:55:58.954Z,21.60
2022-10-20T14:01:24.081Z,19.92
2022-10-20T14:06:37.231Z,23.05
2022-10-20T14:11:40.062Z,18.33
2022-10-20T14:16:50.127Z,20.55
2022-10-20T14:21:51.563Z,23.33
2022-10-20T14:26:54.664Z,25.67
2022-10-20T14:31:56.951Z,20.50
2022-10-20T14:36:59.048Z,27.63
2022-10-20T14:42:02.781Z,30.60
2022-10-20T14:47:05.222Z,27.58
2022-10-20T14:52:22.294Z,26.92
2022-10-20T14:57:38.168Z,28.38
2022-10-20T15:02:42.760Z,27.70
2022-10-20T15:07:44.171Z,25.33
2022-10-20T15:12:48.977Z,28.92
2022-10-20T15:17:54.017Z,27.98
2022-10-20T15:22:57.279Z,28.75
2022-10-20T15:27:59.284Z,30.50
2022-10-20T15:33:00.671Z,32.42
2022-10-20T15:38:02.029Z,37.03
2022-10-20T15:43:03.933Z,46.13
2022-10-20T15:48:05.541Z,48.67
2022-10-20T15:53:06.952Z,46.35
2022-10-20T15:58:08.492Z,40.20
2022-10-20T16:03:16.010Z,34.38
2022-10-20T16:08:17.365Z,37.45
2022-10-20T16:13:21.061Z,35.95
2022-10-20T16:18:22.435Z,48.35
2022-10-20T16:23:24.337Z,47.90
2022-10-20T16:28:25.728Z,48.45
2022-10-20T16:33:28.413Z,45.67
2022-10-20T16:38:30.227Z,39.15
2022-10-20T16:43:32.154Z,48.45
2022-10-20T16:48:35.741Z,40.88
2022-10-20T16:53:39.118Z,47.33
2022-10-20T16:58:40.604Z,44.92
2022-10-20T17:03:44.921Z,51.25
2022-10-20T17:08:47.064Z,52.50
2022-10-20T17:13:48.465Z,48.63
2022-10-20T17:18:49.914Z,48.80
2022-10-20T17:23:51.337Z,55.55
2022-10-20T17:28:58.437Z,48.80
2022-10-20T17:34:00.179Z,49.05
2022-10-20T17:39:06.205Z,47.53
2022-10-20T17:44:09.293Z,53.55
2022-10-20T17:49:10.669Z,52.40
2022-10-20T17:54:12.031Z,50.42
2022-10-20T17:59:14.904Z,59.10
2022-10-20T18:04:17.297Z,47.05
2022-10-20T18:09:19.036Z,49.63
2022-10-20T18:14:20.520Z,49.28
2022-10-20T18:19:22.042Z,40.97
2022-10-20T18:24:23.449Z,35.70
2022-10-20T18:29:25.931Z,45.53
2022-10-20T18:34:27.347Z,45.88
2022-10-20T18:39:31.576Z,39.38
2022-10-20T18:44:33.737Z,43.13
2022-10-20T18:49:35.186Z,37.80
2022-10-20T18:54:36.531Z,37.72
2022-10-20T18:59:38.134Z,36.85
2022-10-20T19:04:39.492Z,39.28
2022-10-20T19:09:40.843Z,38.78
2022-10-20T19:14:42.202Z,40.47
2022-10-20T19:19:44.563Z,41.42
2022-10-20T19:24:46.189Z,39.47
2022-10-20T19:29:47.550Z,46.10
2022-10-20T19:34:48.935Z,43.00
2022-10-20T19:39:50.315Z,40.85
2022-10-20T19:44:51.709Z,43.75
2022-10-20T19:49:53.045Z,40.80
2022-10-20T19:54:54.394Z,43.20
2022-10-20T19:59:55.777Z,40.78
2022-10-20T20:04:57.239Z,41.60
2022-10-20T20:09:58.615Z,45.70
2022-10-20T20:15:00.110Z,43.08
2022-10-20T20:20:01.741Z,40.72
2022-10-20T20:25:03.934Z,41.33
2022-10-20T20:30:05.887Z,43.70
2022-10-20T20:35:08.392Z,39.38
2022-10-20T20:40:10.179Z,44.10
2022-10-20T20:45:12.641Z,40.92
2022-10-20T20:50:14.046Z,46.72
2022-10-20T20:55:15.542Z,46.83
2022-10-20T21:00:16.984Z,44.20
2022-10-20T21:05:18.345Z,40.38
2022-10-20T21:10:20.826Z,42.92
2022-10-20T21:15:22.328Z,37.67
2022-10-20T21:20:23.671Z,35.08
2022-10-20T21:25:25.112Z,41.47
2022-10-20T21:30:27.067Z,42.10
2022-10-20T21:35:29.923Z,38.67
2022-10-20T21:40:31.591Z,39.08
2022-10-20T21:45:33.086Z,44.17
2022-10-20T21:50:37.631Z,40.63
2022-10-20T21:55:38.974Z,40.33
2022-10-20T22:00:40.449Z,39.92
2022-10-20T22:05:41.886Z,40.45
2022-10-20T22:10:43.404Z,37.70
2022-10-20T22:15:44.783Z,40.63
2022-10-20T22:20:46.190Z,42.40
2022-10-20T22:25:52.003Z,39.80
2022-10-20T22:30:53.871Z,43.17
2022-10-20T22:35:55.366Z,42.13
2022-10-20T22:41:01.190Z,37.92
2022-10-20T22:46:02.999Z,35.92
2022-10-20T22:51:05.368Z,42.63
2022-10-20T22:56:13.749Z,40.70
2022-10-20T23:01:20.134Z,41.72
2022-10-20T23:06:24.341Z,42.10
2022-10-20T23:11:25.721Z,37.53
2022-10-20T23:16:27.113Z,42.75
2022-10-20T23:21:28.533Z,38.08
2022-10-20T23:26:29.938Z,40.63
2022-10-20T23:31:31.383Z,39.45
2022-10-20T23:36:35.414Z,43.05
2022-10-20T23:41:39.663Z,43.63
2022-10-20T23:46:41.102Z,44.08
2022-10-20T23:51:42.427Z,44.85
2022-10-20T23:56:43.851Z,39.72
